createdAt,value
2022-11-03T00:00:16.010Z,4.5
2022-11-03T00:01:16.093Z,4.67
2022-11-03T00:02:16.140Z,4.39
2022-11-03T00:03:15.992Z,4.22
2022-11-03T00:04:16.015Z,4.11
2022-11-03T00:05:16.001Z,4.11
2022-11-03T00:06:16.012Z,4.22
2022-11-03T00:07:16.017Z,4.11
2022-11-03T00:08:16.017Z,3.67
2022-11-03T00:09:16.011Z,4.11
2022-11-03T00:10:16.015Z,4.39
2022-11-03T00:11:16.016Z,4.5
2022-11-03T00:12:16.015Z,4.5
2022-11-03T00:13:16.018Z,4.94
2022-11-03T00:14:16.024Z,4.94
2022-11-03T00:15:16.020Z,5.11
2022-11-03T00:16:16.015Z,4.94
2022-11-03T00:17:16.019Z,4.94
2022-11-03T00:18:16.048Z,4.94
2022-11-03T00:19:16.016Z,4.94
2022-11-03T00:20:16.031Z,4.94
2022-11-03T00:21:16.035Z,4.94
2022-11-03T00:22:16.027Z,4.94
2022-11-03T00:23:16.027Z,4.94
2022-11-03T00:24:16.032Z,4.94
2022-11-03T00:25:16.036Z,4.67
2022-11-03T00:26:16.027Z,4.67
2022-11-03T00:27:16.033Z,3.78
2022-11-03T00:28:16.043Z,3.78
2022-11-03T00:29:16.038Z,3.67
2022-11-03T00:30:16.036Z,3.67
2022-11-03T00:31:16.044Z,3.56
2022-11-03T00:32:16.046Z,3.67
2022-11-03T00:33:16.034Z,3.78
2022-11-03T00:34:16.058Z,3.78
2022-11-03T00:35:16.032Z,3.67
2022-11-03T00:36:16.037Z,4.11
2022-11-03T00:37:16.045Z,4.11
2022-11-03T00:38:16.043Z,3.78
2022-11-03T00:39:16.060Z,4.11
2022-11-03T00:40:16.051Z,3.94
2022-11-03T00:41:16.055Z,4.11
2022-11-03T00:42:16.064Z,3.94
2022-11-03T00:43:16.052Z,4.39
2022-11-03T00:44:16.055Z,4.39
2022-11-03T00:45:16.048Z,4.39
2022-11-03T00:46:16.048Z,4.5
2022-11-03T00:47:17.829Z,4.22
2022-11-03T00:48:16.047Z,3.94
2022-11-03T00:49:16.057Z,4.11
2022-11-03T00:50:16.062Z,4.11
2022-11-03T00:51:16.045Z,4.11
2022-11-03T00:52:16.050Z,4.5
2022-11-03T00:53:16.051Z,4.67
2022-11-03T00:54:16.047Z,4.67
2022-11-03T00:55:16.053Z,4.11
2022-11-03T00:56:16.061Z,4.11
2022-11-03T00:57:16.059Z,3.94
2022-11-03T00:58:16.066Z,3.67
2022-11-03T00:59:16.060Z,3.78
2022-11-03T01:00:16.089Z,4.11
2022-11-03T01:01:16.133Z,4.5
2022-11-03T01:02:16.143Z,4.5
2022-11-03T01:03:16.059Z,4.5
2022-11-03T01:04:16.062Z,4.44
2022-11-03T01:05:16.069Z,4.83
2022-11-03T01:06:16.098Z,4.67
2022-11-03T01:07:16.075Z,4.39
2022-11-03T01:08:16.072Z,4.83
2022-11-03T01:09:16.074Z,4.39
2022-11-03T01:10:16.076Z,4.5
2022-11-03T01:11:16.081Z,4.5
2022-11-03T01:12:16.076Z,4.5
2022-11-03T01:13:16.078Z,4.5
2022-11-03T01:14:16.086Z,4.39
2022-11-03T01:15:16.074Z,4.44
2022-11-03T01:16:16.073Z,4.39
2022-11-03T01:17:16.081Z,4.67
2022-11-03T01:18:16.071Z,4.28
2022-11-03T01:19:16.088Z,4.22
2022-11-03T01:20:16.080Z,4.22
2022-11-03T01:21:16.083Z,4.11
2022-11-03T01:22:16.113Z,4.11
2022-11-03T01:23:16.085Z,3.94
2022-11-03T01:24:16.083Z,3.67
2022-11-03T01:25:16.094Z,3.67
2022-11-03T01:26:16.082Z,3.67
2022-11-03T01:27:16.084Z,3.94
2022-11-03T01:28:16.093Z,3.78
2022-11-03T01:29:16.082Z,3.67
2022-11-03T01:30:16.103Z,3.56
2022-11-03T01:31:16.092Z,3.39
2022-11-03T01:32:16.084Z,3.56
2022-11-03T01:33:16.096Z,3.39
2022-11-03T01:34:16.087Z,3.67
2022-11-03T01:35:16.088Z,4
2022-11-03T01:36:16.089Z,4.11
2022-11-03T01:37:16.088Z,3.78
2022-11-03T01:38:16.115Z,3.94
2022-11-03T01:39:16.089Z,3.44
2022-11-03T01:40:16.101Z,3.83
2022-11-03T01:41:16.089Z,3.39
2022-11-03T01:42:16.099Z,3.61
2022-11-03T01:43:16.091Z,3.72
2022-11-03T01:44:16.092Z,3.44
2022-11-03T01:45:16.083Z,3.56
2022-11-03T01:46:16.098Z,3.56
2022-11-03T01:47:16.102Z,3.61
2022-11-03T01:48:16.093Z,3.61
2022-11-03T01:49:16.096Z,3.56
2022-11-03T01:50:16.107Z,3.17
2022-11-03T01:51:16.100Z,3.61
2022-11-03T01:52:16.099Z,3.5
2022-11-03T01:53:16.098Z,3.5
2022-11-03T01:54:16.109Z,3.56
2022-11-03T01:55:16.108Z,3.11
2022-11-03T01:56:16.095Z,3.39
2022-11-03T01:57:16.100Z,3.56
2022-11-03T01:58:16.105Z,3.83
2022-11-03T01:59:16.097Z,3.72
2022-11-03T02:00:16.111Z,3.56
2022-11-03T02:01:16.187Z,3.44
2022-11-03T02:02:16.190Z,3.33
2022-11-03T02:03:16.104Z,3.56
2022-11-03T02:04:16.107Z,3.83
2022-11-03T02:05:16.099Z,3.83
2022-11-03T02:06:16.104Z,3.72
2022-11-03T02:07:16.105Z,3.94
2022-11-03T02:08:16.107Z,3.83
2022-11-03T02:09:16.111Z,3.83
2022-11-03T02:10:16.124Z,3.83
2022-11-03T02:11:16.097Z,4
2022-11-03T02:12:16.100Z,3.83
2022-11-03T02:13:16.109Z,3.56
2022-11-03T02:14:16.106Z,3.83
2022-11-03T02:15:16.099Z,3.72
2022-11-03T02:16:16.097Z,3.44
2022-11-03T02:17:16.104Z,3.44
2022-11-03T02:18:16.100Z,3.33
2022-11-03T02:19:16.107Z,3.72
2022-11-03T02:20:16.116Z,3.61
2022-11-03T02:21:16.113Z,3.5
2022-11-03T02:22:16.108Z,3.44
2022-11-03T02:23:16.108Z,3.44
2022-11-03T02:24:16.111Z,3.44
2022-11-03T02:25:16.109Z,3.33
2022-11-03T02:26:16.139Z,3.33
2022-11-03T02:27:16.117Z,3.44
2022-11-03T02:28:16.122Z,3.33
2022-11-03T02:29:16.108Z,3.44
2022-11-03T02:30:16.111Z,3.44
2022-11-03T02:31:16.126Z,3.56
2022-11-03T02:32:16.112Z,3.44
2022-11-03T02:33:16.118Z,3.56
2022-11-03T02:34:16.124Z,3.72
2022-11-03T02:35:16.123Z,3.56
2022-11-03T02:36:16.124Z,3.83
2022-11-03T02:37:16.125Z,4
2022-11-03T02:38:16.136Z,3.61
2022-11-03T02:39:16.124Z,3.56
2022-11-03T02:40:16.132Z,3.83
2022-11-03T02:41:16.134Z,3.72
2022-11-03T02:42:16.149Z,3.33
2022-11-03T02:43:16.133Z,3.33
2022-11-03T02:44:16.125Z,3.44
2022-11-03T02:45:17.261Z,3.33
2022-11-03T02:46:16.143Z,3.17
2022-11-03T02:47:16.137Z,3.17
2022-11-03T02:48:16.140Z,3
2022-11-03T02:49:16.135Z,3
2022-11-03T02:50:16.147Z,2.72
2022-11-03T02:51:16.158Z,3
2022-11-03T02:52:16.147Z,3
2022-11-03T02:53:16.146Z,2.72
2022-11-03T02:54:16.138Z,3
2022-11-03T02:55:16.142Z,2.89
2022-11-03T02:56:16.142Z,2.94
2022-11-03T02:57:16.151Z,3.33
2022-11-03T02:58:16.162Z,3.44
2022-11-03T02:59:16.150Z,3.17
2022-11-03T03:00:16.162Z,3.33
2022-11-03T03:01:16.273Z,3.44
2022-11-03T03:02:16.261Z,3.44
2022-11-03T03:03:16.145Z,3.44
2022-11-03T03:04:16.171Z,3.17
2022-11-03T03:05:16.150Z,3.17
2022-11-03T03:06:16.162Z,3.33
2022-11-03T03:07:16.169Z,3.44
2022-11-03T03:08:16.173Z,3.17
2022-11-03T03:09:16.163Z,3.17
2022-11-03T03:10:16.199Z,3.11
2022-11-03T03:11:16.185Z,3
2022-11-03T03:12:16.173Z,2.72
2022-11-03T03:13:16.168Z,2.72
2022-11-03T03:14:16.196Z,2.61
2022-11-03T03:15:16.174Z,2.61
2022-11-03T03:16:16.174Z,2.61
2022-11-03T03:17:16.177Z,2.67
2022-11-03T03:18:16.190Z,2.89
2022-11-03T03:19:16.175Z,2.44
2022-11-03T03:20:16.178Z,2.89
2022-11-03T03:21:16.186Z,2.89
2022-11-03T03:22:16.178Z,3
2022-11-03T03:23:16.422Z,2.72
2022-11-03T03:24:16.192Z,3.17
2022-11-03T03:25:16.187Z,3.44
2022-11-03T03:26:16.194Z,3.17
2022-11-03T03:27:16.199Z,3.17
2022-11-03T03:28:16.186Z,3
2022-11-03T03:29:16.192Z,2.72
2022-11-03T03:30:16.218Z,3
2022-11-03T03:31:16.198Z,3
2022-11-03T03:32:16.197Z,2.89
2022-11-03T03:33:16.294Z,3.17
2022-11-03T03:34:33.658Z,3.44
2022-11-03T03:35:16.204Z,3.44
2022-11-03T03:36:16.212Z,3.44
2022-11-03T03:37:16.205Z,3.33
2022-11-03T03:38:16.219Z,3.33
2022-11-03T03:39:16.209Z,3
2022-11-03T03:40:16.206Z,3.44
2022-11-03T03:41:16.212Z,3.33
2022-11-03T03:42:16.223Z,3.44
2022-11-03T03:43:16.210Z,3
2022-11-03T03:44:16.214Z,3
2022-11-03T03:45:16.201Z,2.89
2022-11-03T03:46:16.241Z,3
2022-11-03T03:47:16.209Z,2.61
2022-11-03T03:48:16.225Z,2.89
2022-11-03T03:49:16.214Z,2.44
2022-11-03T03:50:16.217Z,2.89
2022-11-03T03:51:16.222Z,3
2022-11-03T03:52:16.219Z,3
2022-11-03T03:53:16.226Z,2.44
2022-11-03T03:54:16.225Z,2.61
2022-11-03T03:55:16.281Z,2.28
2022-11-03T03:56:16.231Z,2.39
2022-11-03T03:57:16.238Z,2.17
2022-11-03T03:58:16.247Z,2
2022-11-03T03:59:16.226Z,2.67
2022-11-03T04:00:16.266Z,2.72
2022-11-03T04:01:16.348Z,2.61
2022-11-03T04:02:16.442Z,2.72
2022-11-03T04:03:16.244Z,2.44
2022-11-03T04:04:16.247Z,2.44
2022-11-03T04:05:16.245Z,2.89
2022-11-03T04:06:16.252Z,2.89
2022-11-03T04:07:16.240Z,3
2022-11-03T04:08:16.249Z,3
2022-11-03T04:09:16.251Z,3.33
2022-11-03T04:10:16.251Z,2.89
2022-11-03T04:11:16.257Z,3.17
2022-11-03T04:12:16.257Z,3
2022-11-03T04:13:16.260Z,3
2022-11-03T04:14:16.253Z,3.17
2022-11-03T04:15:16.272Z,3.44
2022-11-03T04:16:16.256Z,3.33
2022-11-03T04:17:16.260Z,3.56
2022-11-03T04:18:16.285Z,3.44
2022-11-03T04:19:16.255Z,3.72
2022-11-03T04:20:16.267Z,3.44
2022-11-03T04:21:16.262Z,3.72
2022-11-03T04:22:16.261Z,3.83
2022-11-03T04:23:16.269Z,3.72
2022-11-03T04:24:16.273Z,3.72
2022-11-03T04:25:16.270Z,3.44
2022-11-03T04:26:16.278Z,3.83
2022-11-03T04:27:16.273Z,3.44
2022-11-03T04:28:16.273Z,3.56
2022-11-03T04:29:16.273Z,3.56
2022-11-03T04:30:16.289Z,3.56
2022-11-03T04:31:16.275Z,3.72
2022-11-03T04:32:16.280Z,3.72
2022-11-03T04:33:16.278Z,3.44
2022-11-03T04:34:16.302Z,3.44
2022-11-03T04:35:16.280Z,3.83
2022-11-03T04:36:16.295Z,3.44
2022-11-03T04:37:16.294Z,3.72
2022-11-03T04:38:16.296Z,3.56
2022-11-03T04:39:16.293Z,3.56
2022-11-03T04:40:16.280Z,3.83
2022-11-03T04:41:16.297Z,3.83
2022-11-03T04:42:16.281Z,3.72
2022-11-03T04:43:16.290Z,3.44
2022-11-03T04:44:16.300Z,3.83
2022-11-03T04:45:16.295Z,3.72
2022-11-03T04:46:16.293Z,3.83
2022-11-03T04:47:16.301Z,3.72
2022-11-03T04:48:16.293Z,4
2022-11-03T04:49:16.295Z,4
2022-11-03T04:50:16.316Z,4.28
2022-11-03T04:51:16.299Z,4.17
2022-11-03T04:52:16.302Z,4.44
2022-11-03T04:53:16.295Z,4.44
2022-11-03T04:54:16.309Z,4.17
2022-11-03T04:55:16.305Z,4.28
2022-11-03T04:56:16.310Z,4.28
2022-11-03T04:57:16.304Z,4.28
2022-11-03T04:58:16.304Z,3.83
2022-11-03T04:59:16.302Z,4.44
2022-11-03T05:00:16.313Z,4.72
2022-11-03T05:01:19.571Z,4.56
2022-11-03T05:02:16.336Z,4.72
2022-11-03T05:03:16.314Z,4.72
2022-11-03T05:04:16.318Z,4.72
2022-11-03T05:05:16.320Z,4.56
2022-11-03T05:06:16.341Z,4.72
2022-11-03T05:07:16.314Z,4.44
2022-11-03T05:08:16.313Z,4.72
2022-11-03T05:09:16.316Z,5
2022-11-03T05:10:16.319Z,5
2022-11-03T05:11:16.324Z,5.17
2022-11-03T05:12:16.315Z,5
2022-11-03T05:13:16.327Z,4.56
2022-11-03T05:14:16.328Z,4.89
2022-11-03T05:15:16.324Z,4.72
2022-11-03T05:16:16.337Z,4.72
2022-11-03T05:17:16.321Z,4.56
2022-11-03T05:18:16.339Z,4.72
2022-11-03T05:19:16.349Z,4.44
2022-11-03T05:20:16.334Z,4.72
2022-11-03T05:21:16.348Z,4.44
2022-11-03T05:22:16.365Z,4.72
2022-11-03T05:23:16.342Z,4.56
2022-11-03T05:24:16.365Z,4.72
2022-11-03T05:25:16.346Z,5
2022-11-03T05:26:16.341Z,5
2022-11-03T05:27:16.341Z,4.89
2022-11-03T05:28:16.342Z,4.89
2022-11-03T05:29:16.335Z,5.17
2022-11-03T05:30:16.356Z,4.89
2022-11-03T05:31:16.350Z,4.89
2022-11-03T05:32:16.347Z,5.17
2022-11-03T05:33:16.343Z,4.72
2022-11-03T05:34:16.349Z,4.89
2022-11-03T05:35:16.354Z,4.72
2022-11-03T05:36:16.358Z,4.89
2022-11-03T05:37:16.350Z,4.72
2022-11-03T05:38:16.377Z,5
2022-11-03T05:39:16.355Z,5
2022-11-03T05:40:16.356Z,5.17
2022-11-03T05:41:16.366Z,4.89
2022-11-03T05:42:16.369Z,4.89
2022-11-03T05:43:16.357Z,4.72
2022-11-03T05:44:16.354Z,5
2022-11-03T05:45:16.371Z,5
2022-11-03T05:46:16.373Z,4.72
2022-11-03T05:47:16.369Z,4.89
2022-11-03T05:48:16.370Z,4.44
2022-11-03T05:49:16.372Z,5
2022-11-03T05:50:16.378Z,5
2022-11-03T05:51:16.366Z,4.89
2022-11-03T05:52:16.357Z,4.89
2022-11-03T05:53:16.372Z,4.72
2022-11-03T05:54:18.524Z,5
2022-11-03T05:55:16.374Z,4.89
2022-11-03T05:56:16.363Z,4.89
2022-11-03T05:57:16.381Z,4.89
2022-11-03T05:58:16.389Z,5
2022-11-03T05:59:16.374Z,4.72
2022-11-03T06:00:16.384Z,4.56
2022-11-03T06:01:16.449Z,4.56
2022-11-03T06:02:16.492Z,4.56
2022-11-03T06:03:16.386Z,4.44
2022-11-03T06:04:16.378Z,4.28
2022-11-03T06:05:16.386Z,4.44
2022-11-03T06:06:16.390Z,4.56
2022-11-03T06:07:16.394Z,4.28
2022-11-03T06:08:16.391Z,4.56
2022-11-03T06:09:16.389Z,4.56
2022-11-03T06:10:16.404Z,4.56
2022-11-03T06:11:16.402Z,4.72
2022-11-03T06:12:16.390Z,4.28
2022-11-03T06:13:16.400Z,4.56
2022-11-03T06:14:18.660Z,4.56
2022-11-03T06:15:16.389Z,4.72
2022-11-03T06:16:16.400Z,4.56
2022-11-03T06:17:16.394Z,4.56
2022-11-03T06:18:16.399Z,4.28
2022-11-03T06:19:16.384Z,4
2022-11-03T06:20:16.404Z,4.56
2022-11-03T06:21:16.401Z,4.78
2022-11-03T06:22:16.400Z,4.67
2022-11-03T06:23:16.396Z,4.56
2022-11-03T06:24:16.396Z,4.44
2022-11-03T06:25:16.406Z,4.56
2022-11-03T06:26:16.420Z,4.5
2022-11-03T06:27:16.410Z,4.56
2022-11-03T06:28:16.401Z,4.5
2022-11-03T06:29:16.408Z,4.17
2022-11-03T06:30:16.414Z,4.56
2022-11-03T06:31:17.677Z,4.5
2022-11-03T06:32:16.405Z,4.56
2022-11-03T06:33:16.410Z,4.78
2022-11-03T06:34:16.413Z,4.94
2022-11-03T06:35:16.413Z,4.89
2022-11-03T06:36:16.411Z,5
2022-11-03T06:37:16.412Z,4.89
2022-11-03T06:38:16.415Z,4.89
2022-11-03T06:39:16.419Z,5.17
2022-11-03T06:40:16.416Z,4.94
2022-11-03T06:41:16.414Z,5
2022-11-03T06:42:16.435Z,5
2022-11-03T06:43:16.409Z,5
2022-11-03T06:44:16.414Z,4.89
2022-11-03T06:45:16.423Z,5.17
2022-11-03T06:46:16.420Z,5.17
2022-11-03T06:47:16.417Z,5.33
2022-11-03T06:48:16.432Z,5.33
2022-11-03T06:49:16.421Z,5.33
2022-11-03T06:50:16.424Z,5.61
2022-11-03T06:51:16.421Z,5.44
2022-11-03T06:52:16.425Z,5.17
2022-11-03T06:53:16.426Z,5.61
2022-11-03T06:54:16.422Z,5.33
2022-11-03T06:55:16.994Z,5.61
2022-11-03T06:56:16.429Z,5.33
2022-11-03T06:57:16.426Z,5.44
2022-11-03T06:58:16.446Z,5.44
2022-11-03T06:59:16.425Z,5.44
2022-11-03T07:00:42.886Z,5.33
2022-11-03T07:01:16.615Z,5.67
2022-11-03T07:02:16.514Z,5.22
2022-11-03T07:03:16.428Z,5.44
2022-11-03T07:04:16.436Z,5.17
2022-11-03T07:05:16.437Z,5.61
2022-11-03T07:06:16.428Z,5.5
2022-11-03T07:07:16.436Z,5.44
2022-11-03T07:08:16.422Z,5.44
2022-11-03T07:09:16.432Z,5.44
2022-11-03T07:10:16.435Z,5.22
2022-11-03T07:11:16.440Z,5.39
2022-11-03T07:12:16.440Z,5.61
2022-11-03T07:13:16.431Z,5.61
2022-11-03T07:14:16.450Z,5.89
2022-11-03T07:15:16.443Z,5.61
2022-11-03T07:16:17.849Z,5.83
2022-11-03T07:17:16.440Z,5.61
2022-11-03T07:18:16.440Z,5.83
2022-11-03T07:19:16.445Z,6
2022-11-03T07:20:16.434Z,5.61
2022-11-03T07:21:16.444Z,6
2022-11-03T07:22:16.448Z,6
2022-11-03T07:23:16.440Z,6
2022-11-03T07:24:16.437Z,6
2022-11-03T07:25:16.435Z,6
2022-11-03T07:26:16.446Z,6.39
2022-11-03T07:27:16.438Z,6.39
2022-11-03T07:28:16.438Z,6.5
2022-11-03T07:29:16.439Z,6.06
2022-11-03T07:30:16.464Z,6.06
2022-11-03T07:31:16.772Z,6.11
2022-11-03T07:32:16.442Z,6
2022-11-03T07:33:16.438Z,5.72
2022-11-03T07:34:16.440Z,6.28
2022-11-03T07:35:16.442Z,6
2022-11-03T07:36:17.038Z,6.5
2022-11-03T07:37:16.443Z,6.28
2022-11-03T07:38:16.451Z,6.39
2022-11-03T07:39:16.455Z,6.28
2022-11-03T07:40:16.440Z,6.56
2022-11-03T07:41:16.433Z,6.56
2022-11-03T07:42:16.444Z,6.5
2022-11-03T07:43:16.439Z,6.5
2022-11-03T07:44:16.449Z,6.06
2022-11-03T07:45:16.442Z,6.39
2022-11-03T07:46:16.467Z,6.5
2022-11-03T07:47:16.448Z,6.67
2022-11-03T07:48:16.438Z,6.56
2022-11-03T07:49:16.443Z,6.56
2022-11-03T07:50:16.446Z,6.22
2022-11-03T07:51:16.455Z,6.39
2022-11-03T07:52:16.463Z,6.22
2022-11-03T07:53:16.458Z,6.06
2022-11-03T07:54:16.455Z,6.39
2022-11-03T07:55:16.454Z,6.5
2022-11-03T07:56:16.555Z,6.5
2022-11-03T07:57:16.458Z,6.67
2022-11-03T07:58:16.471Z,6.67
2022-11-03T07:59:16.573Z,6.39
2022-11-03T08:00:16.468Z,6.39
2022-11-03T08:01:16.521Z,7.11
2022-11-03T08:02:16.624Z,6.94
2022-11-03T08:03:16.466Z,7.11
2022-11-03T08:04:16.462Z,7
2022-11-03T08:05:16.624Z,7.11
2022-11-03T08:06:17.274Z,7.11
2022-11-03T08:07:16.481Z,6.78
2022-11-03T08:08:16.476Z,6.67
2022-11-03T08:09:16.474Z,6.78
2022-11-03T08:10:16.485Z,6.78
2022-11-03T08:11:16.531Z,6.94
2022-11-03T08:12:16.492Z,6.78
2022-11-03T08:13:16.485Z,7.22
2022-11-03T08:14:16.482Z,6.94
2022-11-03T08:15:16.501Z,6.94
2022-11-03T08:16:16.489Z,7.22
2022-11-03T08:17:16.485Z,7.22
2022-11-03T08:18:16.510Z,7.11
2022-11-03T08:19:16.498Z,7.22
2022-11-03T08:20:16.494Z,7.11
2022-11-03T08:21:16.501Z,7.22
2022-11-03T08:22:16.490Z,7.39
2022-11-03T08:23:32.178Z,7.11
2022-11-03T08:24:16.493Z,7.22
2022-11-03T08:25:16.489Z,7.11
2022-11-03T08:26:16.491Z,6.78
2022-11-03T08:27:16.495Z,7.11
2022-11-03T08:28:16.504Z,7.22
2022-11-03T08:29:16.498Z,7.11
2022-11-03T08:30:16.501Z,7.11
2022-11-03T08:31:16.514Z,6.94
2022-11-03T08:32:16.507Z,7.11
2022-11-03T08:33:16.524Z,7.39
2022-11-03T08:34:16.526Z,7.11
2022-11-03T08:35:16.504Z,7.5
2022-11-03T08:36:16.513Z,7.5
2022-11-03T08:37:16.522Z,6.94
2022-11-03T08:38:16.524Z,7.5
2022-11-03T08:39:16.518Z,7.5
2022-11-03T08:40:16.510Z,7.67
2022-11-03T08:41:16.525Z,7.67
2022-11-03T08:42:16.516Z,7.5
2022-11-03T08:43:16.526Z,7.39
2022-11-03T08:44:16.526Z,7.22
2022-11-03T08:45:16.521Z,7.39
2022-11-03T08:46:17.886Z,7.22
2022-11-03T08:47:16.518Z,7.22
2022-11-03T08:48:16.517Z,7.39
2022-11-03T08:49:16.525Z,7.22
2022-11-03T08:50:16.558Z,7.5
2022-11-03T08:51:16.536Z,7.5
2022-11-03T08:52:16.548Z,7.39
2022-11-03T08:53:16.538Z,6.67
2022-11-03T08:54:16.530Z,7.11
2022-11-03T08:55:16.535Z,7.11
2022-11-03T08:56:19.216Z,7.11
2022-11-03T08:57:16.535Z,7.11
2022-11-03T08:58:16.537Z,7.11
2022-11-03T08:59:16.530Z,7.11
2022-11-03T09:00:16.550Z,7.22
2022-11-03T09:01:16.637Z,7.22
2022-11-03T09:02:16.697Z,7.5
2022-11-03T09:03:16.670Z,7.39
2022-11-03T09:04:16.547Z,7.39
2022-11-03T09:05:16.535Z,7.5
2022-11-03T09:06:16.628Z,7.67
2022-11-03T09:07:16.558Z,7.5
2022-11-03T09:11:16.549Z,6.94
2022-11-03T09:12:16.560Z,7.22
2022-11-03T09:13:16.547Z,7.11
2022-11-03T09:14:16.543Z,6.94
2022-11-03T09:15:16.553Z,7.11
2022-11-03T09:16:16.619Z,7.11
2022-11-03T09:17:16.551Z,7.22
2022-11-03T09:18:16.560Z,7.5
2022-11-03T09:19:16.551Z,7.22
2022-11-03T09:20:16.550Z,7.39
2022-11-03T09:21:16.557Z,7.39
2022-11-03T09:22:16.576Z,7.22
2022-11-03T09:23:16.555Z,7.39
2022-11-03T09:24:16.563Z,7.5
2022-11-03T09:25:16.566Z,7.78
2022-11-03T09:26:16.670Z,7.5
2022-11-03T09:27:16.565Z,7.94
2022-11-03T09:28:16.554Z,8.28
2022-11-03T09:29:16.568Z,8.39
2022-11-03T09:30:16.560Z,8.28
2022-11-03T09:31:16.576Z,7.94
2022-11-03T09:32:20.358Z,7.94
2022-11-03T09:33:16.573Z,8.39
2022-11-03T09:34:16.578Z,8.5
2022-11-03T09:35:16.585Z,8.78
2022-11-03T09:36:16.619Z,8.39
2022-11-03T09:37:16.573Z,8.78
2022-11-03T09:38:16.601Z,8.61
2022-11-03T09:39:16.579Z,8.78
2022-11-03T09:40:16.583Z,8.61
2022-11-03T09:41:24.727Z,7.94
2022-11-03T09:42:16.581Z,7.94
2022-11-03T09:43:16.602Z,8.28
2022-11-03T09:44:16.585Z,8.39
2022-11-03T09:45:16.602Z,8.5
2022-11-03T09:46:16.583Z,8.78
2022-11-03T09:47:16.588Z,9.06
2022-11-03T09:48:16.590Z,9.67
2022-11-03T09:49:16.599Z,9.78
2022-11-03T09:50:16.620Z,9.39
2022-11-03T09:51:16.591Z,9.5
2022-11-03T09:52:16.598Z,9.67
2022-11-03T09:53:16.581Z,9.67
2022-11-03T09:54:16.635Z,9.67
2022-11-03T09:55:16.625Z,9.5
2022-11-03T09:56:16.592Z,9.06
2022-11-03T09:57:16.592Z,9.22
2022-11-03T09:58:16.592Z,9.22
2022-11-03T09:59:16.583Z,9.39
2022-11-03T10:00:16.595Z,9.5
2022-11-03T10:01:16.671Z,9.22
2022-11-03T10:02:16.654Z,9.22
2022-11-03T10:03:16.599Z,9.5
2022-11-03T10:04:16.606Z,9.39
2022-11-03T10:06:16.624Z,9.5
2022-11-03T10:07:16.601Z,9.78
2022-11-03T10:08:17.087Z,9.22
2022-11-03T10:09:16.605Z,8.94
2022-11-03T10:10:16.627Z,9.22
2022-11-03T10:11:16.592Z,9.22
2022-11-03T10:12:16.608Z,9.22
2022-11-03T10:13:16.602Z,8.78
2022-11-03T10:14:16.595Z,8.5
2022-11-03T10:15:16.597Z,8.5
2022-11-03T10:16:16.603Z,9.06
2022-11-03T10:17:16.602Z,8.94
2022-11-03T10:18:16.612Z,8.94
2022-11-03T10:19:16.596Z,9.5
2022-11-03T10:20:16.614Z,8.78
2022-11-03T10:21:16.611Z,8.5
2022-11-03T10:22:16.611Z,8.5
2022-11-03T10:23:16.606Z,8.5
2022-11-03T10:24:16.602Z,8.11
2022-11-03T10:25:16.626Z,8.39
2022-11-03T10:26:16.628Z,8.39
2022-11-03T10:27:16.612Z,8.5
2022-11-03T10:28:16.614Z,8.39
2022-11-03T10:29:16.691Z,8.28
2022-11-03T10:30:16.704Z,8.28
2022-11-03T10:31:16.614Z,8.28
2022-11-03T10:32:16.611Z,8.39
2022-11-03T10:33:16.625Z,8.28
2022-11-03T10:34:16.615Z,8.78
2022-11-03T10:35:16.612Z,9.22
2022-11-03T10:36:16.611Z,8.94
2022-11-03T10:37:16.620Z,9.39
2022-11-03T10:38:16.615Z,10.11
2022-11-03T10:39:16.612Z,9.67
2022-11-03T10:40:28.351Z,9.67
2022-11-03T10:41:16.622Z,9.06
2022-11-03T10:42:16.642Z,9.39
2022-11-03T10:43:16.624Z,10.11
2022-11-03T10:44:16.625Z,10.39
2022-11-03T10:45:16.626Z,10.56
2022-11-03T10:46:29.790Z,10.56
2022-11-03T10:47:16.626Z,10.39
2022-11-03T10:48:16.623Z,10.22
2022-11-03T10:49:16.629Z,10.39
2022-11-03T10:50:16.694Z,10.56
2022-11-03T10:51:16.635Z,9.94
2022-11-03T10:52:16.635Z,9.94
2022-11-03T10:53:16.669Z,9.5
2022-11-03T10:54:16.636Z,9.39
2022-11-03T10:55:19.182Z,10.11
2022-11-03T10:56:16.634Z,10.39
2022-11-03T10:57:16.618Z,10.22
2022-11-03T10:58:16.652Z,11
2022-11-03T10:59:16.636Z,11.61
2022-11-03T11:00:16.758Z,11.44
2022-11-03T11:01:16.695Z,11.61
2022-11-03T11:02:16.881Z,11.83
2022-11-03T11:03:19.650Z,11.72
2022-11-03T11:04:16.669Z,11.61
2022-11-03T11:05:16.635Z,11.61
2022-11-03T11:06:16.640Z,11.83
2022-11-03T11:07:16.641Z,12.11
2022-11-03T11:08:16.712Z,11.83
2022-11-03T11:09:16.644Z,12.44
2022-11-03T11:10:16.631Z,12.44
2022-11-03T11:11:16.641Z,12.28
2022-11-03T11:12:16.641Z,11.94
2022-11-03T11:13:16.638Z,12.11
2022-11-03T11:14:16.644Z,12.28
2022-11-03T11:15:16.645Z,12.11
2022-11-03T11:16:16.636Z,12.28
2022-11-03T11:17:16.644Z,11.44
2022-11-03T11:18:16.655Z,11.44
2022-11-03T11:19:16.641Z,11.83
2022-11-03T11:20:16.640Z,12.28
2022-11-03T11:21:16.636Z,12.28
2022-11-03T11:22:16.643Z,12.56
2022-11-03T11:23:16.638Z,12.44
2022-11-03T11:24:16.640Z,12.72
2022-11-03T11:25:16.649Z,12.11
2022-11-03T11:26:16.636Z,11
2022-11-03T11:27:16.633Z,11.28
2022-11-03T11:28:16.643Z,11.44
2022-11-03T11:29:16.643Z,12.56
2022-11-03T11:30:16.664Z,12.72
2022-11-03T11:31:16.645Z,12.72
2022-11-03T11:32:16.644Z,12.56
2022-11-03T11:33:16.637Z,12.72
2022-11-03T11:34:16.635Z,12.89
2022-11-03T11:35:16.637Z,12.89
2022-11-03T11:36:16.637Z,12.72
2022-11-03T11:37:16.642Z,12.89
2022-11-03T11:38:16.643Z,13.17
2022-11-03T11:39:16.640Z,13.33
2022-11-03T11:40:16.635Z,13.67
2022-11-03T11:41:16.638Z,13.78
2022-11-03T11:42:16.697Z,14.06
2022-11-03T11:43:16.638Z,13.17
2022-11-03T11:44:16.640Z,13.06
2022-11-03T11:45:16.639Z,12.56
2022-11-03T11:46:16.679Z,12.28
2022-11-03T11:47:16.640Z,11.72
2022-11-03T11:48:18.734Z,11.61
2022-11-03T11:49:16.655Z,11.44
2022-11-03T11:50:16.650Z,12.11
2022-11-03T11:51:16.652Z,12.72
2022-11-03T11:52:19.105Z,12.28
2022-11-03T11:53:16.635Z,12.44
2022-11-03T11:54:17.773Z,12.33
2022-11-03T11:55:16.649Z,12
2022-11-03T11:56:16.651Z,12
2022-11-03T11:57:16.648Z,11.5
2022-11-03T11:58:16.640Z,11.5
2022-11-03T11:59:20.153Z,11.61
2022-11-03T12:00:16.645Z,11.89
2022-11-03T12:01:16.671Z,12.17
2022-11-03T12:02:16.671Z,12.17
2022-11-03T12:03:16.682Z,12
2022-11-03T12:05:16.646Z,12.94
2022-11-03T12:06:16.638Z,13.39
2022-11-03T12:07:16.654Z,13.11
2022-11-03T12:08:16.649Z,13.56
2022-11-03T12:09:16.652Z,12.94
2022-11-03T12:10:16.646Z,13.39
2022-11-03T12:11:16.709Z,13.22
2022-11-03T12:12:16.653Z,12.61
2022-11-03T12:13:16.657Z,13.56
2022-11-03T12:14:16.645Z,13.67
2022-11-03T12:15:16.656Z,12.5
2022-11-03T12:16:16.649Z,12.5
2022-11-03T12:17:16.661Z,12.78
2022-11-03T12:18:16.674Z,12.5
2022-11-03T12:19:16.655Z,12.94
2022-11-03T12:20:16.654Z,13.11
2022-11-03T12:21:16.654Z,13.56
2022-11-03T12:22:16.685Z,13.11
2022-11-03T12:23:16.656Z,12.78
2022-11-03T12:24:16.661Z,12.17
2022-11-03T12:25:16.664Z,12.33
2022-11-03T12:26:16.664Z,13.39
2022-11-03T12:27:16.664Z,13.67
2022-11-03T12:28:16.670Z,14.11
2022-11-03T12:29:16.674Z,14.44
2022-11-03T12:30:16.666Z,14.44
2022-11-03T12:31:16.669Z,14.11
2022-11-03T12:32:25.464Z,14.28
2022-11-03T12:33:16.659Z,14
2022-11-03T12:34:16.689Z,14.44
2022-11-03T12:35:16.671Z,14.78
2022-11-03T12:36:16.667Z,13.83
2022-11-03T12:37:16.665Z,13.67
2022-11-03T12:38:16.670Z,14.11
2022-11-03T12:39:16.680Z,14.11
2022-11-03T12:40:16.678Z,14.61
2022-11-03T12:41:16.678Z,14
2022-11-03T12:42:16.673Z,13.83
2022-11-03T12:43:16.672Z,13.39
2022-11-03T12:44:16.886Z,13.39
2022-11-03T12:45:16.684Z,13.39
2022-11-03T12:46:16.681Z,13.39
2022-11-03T12:47:16.677Z,13.39
2022-11-03T12:48:16.681Z,13.67
2022-11-03T12:49:16.680Z,13.67
2022-11-03T12:50:16.719Z,14.11
2022-11-03T12:51:16.689Z,14.28
2022-11-03T12:52:16.687Z,14
2022-11-03T12:53:16.686Z,14.61
2022-11-03T12:54:16.684Z,14.44
2022-11-03T12:55:16.758Z,13.22
2022-11-03T12:56:16.682Z,14
2022-11-03T12:57:16.690Z,13.22
2022-11-03T12:58:16.685Z,13.56
2022-11-03T12:59:16.696Z,13.56
2022-11-03T13:00:16.723Z,13.39
2022-11-03T13:01:16.906Z,13.39
2022-11-03T13:02:16.799Z,13.83
2022-11-03T13:03:16.692Z,14.28
2022-11-03T13:04:16.689Z,14.44
2022-11-03T13:05:16.831Z,14.78
2022-11-03T13:06:16.713Z,14.78
2022-11-03T13:07:20.580Z,15.06
2022-11-03T13:09:16.696Z,14.89
2022-11-03T13:10:16.705Z,14.89
2022-11-03T13:11:16.704Z,14.11
2022-11-03T13:12:16.704Z,14.44
2022-11-03T13:13:16.698Z,14.78
2022-11-03T13:14:16.704Z,14.44
2022-11-03T13:15:16.700Z,15.17
2022-11-03T13:16:16.704Z,15.17
2022-11-03T13:17:16.706Z,15.61
2022-11-03T13:18:16.703Z,15.61
2022-11-03T13:19:16.713Z,15.61
2022-11-03T13:20:16.702Z,15.61
2022-11-03T13:21:16.712Z,15.61
2022-11-03T13:22:16.961Z,16.06
2022-11-03T13:23:18.716Z,16.39
2022-11-03T13:24:16.704Z,15.28
2022-11-03T13:25:16.748Z,15.17
2022-11-03T13:26:16.712Z,15.28
2022-11-03T13:27:16.716Z,15.78